This is the latest recevied weather packets stored in our database for station/object DC4XK-10. If no packets are shown the sender has not sent any weather packets the latest 10 day(s).
| Time | Temp. | Humidity | Pressure | Rain* | Wind** | Luminosity | Snow |
|---|---|---|---|---|---|---|---|
| 1777577333 | 10.56° C | 74% | 1028.2 hPa | 0 mm | 0 m/s | - | - |
| 1777576740 | 12.78° C | 66% | 1028 hPa | 0 mm | 0 m/s | - | - |
| 1777575530 | 13.89° C | 63% | 1028.1 hPa | 0 mm | 0 m/s | - | - |
| 1777574931 | 15° C | 59% | 1028.2 hPa | 0 mm | 0 m/s | - | - |
| 1777574330 | 16.67° C | 54% | 1028.1 hPa | 0 mm | 0 m/s | - | - |
| 1777573131 | 16.67° C | 55% | 1027.9 hPa | 0 mm | 0 m/s | - | - |
| 1777571931 | 17.22° C | 51% | 1028.3 hPa | 0 mm | 0 m/s | - | - |
| 1777571331 | 17.78° C | 49% | 1027.9 hPa | 0 mm | 0 m/s | - | - |
| 1777570131 | 18.33° C | 49% | 1028.1 hPa | 0 mm | 0 m/s | - | - |
| 1777568932 | 21.67° C | 36% | 1028.1 hPa | 0 mm | 0.45 m/s, 245° | - | - |
| 1777567133 | 20° C | 38% | 1028.2 hPa | 0 mm | 0 m/s | - | - |
| 1777565931 | 21.67° C | 37% | 1028.3 hPa | 0 mm | 0 m/s | - | - |
| 1777565334 | 21.11° C | 39% | 1028.2 hPa | 0 mm | 0 m/s | - | - |
| 1777563534 | 20° C | 40% | 1028.5 hPa | 0 mm | 0.89 m/s, 232° | - | - |
| 1777562931 | 20° C | 40% | 1028.6 hPa | 0 mm | 1.79 m/s, 289° | - | - |
| 1777562330 | 21.11° C | 37% | 1028.8 hPa | 0 mm | 0.45 m/s, 218° | - | - |
| 1777561131 | 20° C | 36% | 1028.7 hPa | 0 mm | 1.34 m/s, 260° | - | - |
| 1777559930 | 20.56° C | 36% | 1029 hPa | 0 mm | 0.89 m/s, 63° | - | - |
| 1777558731 | 20.56° C | 37% | 1029.2 hPa | 0 mm | 0.45 m/s, 218° | - | - |
| 1777557531 | 19.44° C | 37% | 1029.4 hPa | 0 mm | 0.45 m/s, 240° | - | - |
| 1777556931 | 19.44° C | 36% | 1029.6 hPa | 0 mm | 0 m/s | - | - |
| 1777552130 | 20° C | 36% | 1030.2 hPa | 0 mm | 0 m/s | - | - |
| 1777551534 | 20° C | 36% | 1030.4 hPa | 0 mm | 0 m/s | - | - |
| 1777550330 | 18.33° C | 39% | 1030.4 hPa | 0 mm | 2.24 m/s, 165° | - | - |
| 1777549732 | 17.78° C | 38% | 1030.4 hPa | 0 mm | 1.79 m/s, 320° | - | - |
* Rain latest hour (hover to see other rain measurements)
** Current wind speed in m/s (hover to see current wind gust speed)